Nearby METAR Reports

 

EDNY - Friedrichshafen, Germany
Distance from station: ONO 32km
aktuell: 15/04/2024 09:50
sehr leichter Niederschlag, geschlossene Wolkendecke
sehr leichter Niederschlag, geschlossene Wolkendecke
 Wind von varies
Wind: varies 2 km/h
Temperatur: 14°C
Taupunkt: 13°C
Luftfeuchte: 94%
Luftdruck: 1014 hPa
Zusammenfassung: sehr leichter Niederschlag
Clouds: geschlossene Wolkendecke
Visibility: 10 km
Cloud details: teilweise bewölkt 1402 m
geschlossene Wolkendecke 1707 m
2024/04/15 07:50 EDNY 150750Z VRB01KT 9999 -RA SCT046 OVC056 14/13 Q1014
LSZR - Rheineck/Altenrh, Switzerland
Distance from station: OSO 37km
aktuell: 15/04/2024 09:50
Nearby showers, stark bewölkt
Nearby showers, stark bewölkt
 Wind von varies
Wind: varies 2 km/h
Temperatur: 15°C
Taupunkt: 14°C
Luftfeuchte: 94%
Luftdruck: 1013 hPa
Zusammenfassung: Nearby Showers
Clouds: stark bewölkt
Visibility: 10 km
Cloud details: stark bewölkt 1676 m
2024/04/15 07:50 LSZR 150750Z VRB01KT 9999 VCSH BKN055 15/14 Q1013 RMK D
LSMD - Dubendorf, Switzerland
Distance from station: SW 40km
aktuell: 15/04/2024 09:50
sehr leichter Niederschlag, stark bewölkt
sehr leichter Niederschlag, stark bewölkt
 Wind von N
Wind: N 6 km/h
Temperatur: 15°C
Taupunkt: 12°C
Luftfeuchte: 82%
Luftdruck: 1014 hPa
Zusammenfassung: sehr leichter Niederschlag
Clouds: stark bewölkt
Visibility: 10 km
Cloud details: Few Clouds 1006 m
teilweise bewölkt 1494 m
stark bewölkt 1951 m
2024/04/15 07:50 LSMD 150750Z AUTO 36003KT 280V030 9999NDV -RA FEW033 SCT049 BKN064 15/12 Q1014 RMK
 
LSZH - Zurich-Kloten (a, Switzerland
Distance from station: WSW 44km
aktuell: 15/04/2024 09:50
sehr leichter Niederschlag, Showers, Nearby thunderstorm, stark bewölkt
sehr leichter Niederschlag, Showers, Nearby thunderstorm, stark bewölkt
 Wind von SSW
Wind: SSW 9 km/h
Temperatur: 14°C
Taupunkt: 13°C
Luftfeuchte: 94%
Luftdruck: 1014 hPa
Zusammenfassung: sehr leichter Niederschlag, Showers, Nearby thunderstorm
Clouds: stark bewölkt
Visibility: 9 km
Cloud details: Few Clouds 1280 m
Few Clouds 1372 m
stark bewölkt 1676 m
2024/04/15 07:50 LSZH 150750Z 21005KT 9000 4000E -SHRA VCTS FEW042 FEW045CB BKN055 14/13 Q1014 RERA TEMPO 4000 SHRA
LSME - Emmen, Switzerland
Distance from station: SW 82km
aktuell: 15/04/2024 09:50
stark bewölkt
stark bewölkt
 Wind von OSO
Wind: OSO 6 km/h
Temperatur: 16°C
Taupunkt: 13°C
Luftfeuchte: 83%
Luftdruck: 1014 hPa
Clouds: stark bewölkt
Visibility: 10 km
Cloud details: stark bewölkt 1981 m
stark bewölkt 2560 m
2024/04/15 07:50 LSME 150750Z 11003KT 9999 BKN065 BKN084 16/13 Q1014 RMK BLU
LSZC - Buochs, Switzerland
Distance from station: SW 89km
aktuell: 15/04/2024 09:50
stark bewölkt
stark bewölkt
 Wind von O
Wind: O 11 km/h
Temperatur: 15°C
Taupunkt: 12°C
Luftfeuchte: 82%
Luftdruck: 1014 hPa
Clouds: stark bewölkt
Visibility: 10 km
Cloud details: stark bewölkt 2286 m
2024/04/15 07:50 LSZC 150750Z 10006KT 9999 BKN075 15/12 Q1014
 
ETHL - Laupheim (ger-Ar, Germany
Distance from station: NO 92km
aktuell: 15/04/2024 09:53
Light thunderstorm, Regen, stark bewölkt
Light thunderstorm, Regen, stark bewölkt
 Wind von WNW
Wind: WNW 9 km/h
Temperatur: 13°C
Taupunkt: 11°C
Luftfeuchte: 88%
Luftdruck: 1013 hPa
Zusammenfassung: Light thunderstorm, Regen
Clouds: stark bewölkt
Visibility: 10 km
Cloud details: teilweise bewölkt 792 m
stark bewölkt 1524 m
2024/04/15 07:53 ETHL 150753Z 29005KT 9999 -TSRA SCT026CB BKN050 13/11 Q1013 BLU BLU TEMPO YLO
EDJA - Memmingen Allgau, Germany
Distance from station: ONO 95km
aktuell: 15/04/2024 09:50
sehr leichter Niederschlag, teilweise bewölkt
sehr leichter Niederschlag, teilweise bewölkt
 Wind von S
Wind: S 11 km/h
Temperatur: 13°C
Taupunkt: 11°C
Luftfeuchte: 88%
Luftdruck: 1013 hPa
Zusammenfassung: sehr leichter Niederschlag
Clouds: teilweise bewölkt
Visibility: 10 km
Cloud details: Few Clouds 853 m
teilweise bewölkt 1615 m
2024/04/15 07:50 EDJA 150750Z 19006KT 9999 -RA FEW028 SCT053 13/11 Q1013
LSMA - Alpnach, Switzerland
Distance from station: SW 95km
aktuell: 15/04/2024 09:50
stark bewölkt
stark bewölkt
 Wind von varies
Wind: varies 4 km/h
Temperatur: 15°C
Taupunkt: 13°C
Luftfeuchte: 88%
Luftdruck: 1014 hPa
Clouds: stark bewölkt
Visibility: 10 km
Cloud details: stark bewölkt 2316 m
2024/04/15 07:50 LSMA 150750Z VRB02KT 9999 // BKN076 15/13 Q1014 RMK BLU